Time;durP1;ratioP1;P1;durP2;ratioP2;P2;SDS_P1;SDS_P2;PMS_P1;PMS_P2;Temp;Humidity;BMP_temperature;BMP_pressure;BME280_temperature;BME280_humidity;BME280_pressure;Samples;Min_cycle;Max_cycle;Signal;HPM_P1;HPM_P2
2024/02/08 00:00:39;;;;;;;7.25;2.90;;;;;;;-12.33;68.20;96299.97;5111461;28;20043;-60
2024/02/08 00:03:08;;;;;;;7.07;4.28;;;;;;;-12.38;69.23;96299.66;5111247;28;20493;-58
2024/02/08 00:05:37;;;;;;;8.40;3.97;;;;;;;-12.41;68.79;96302.56;5111527;28;20092;-60
2024/02/08 00:08:06;;;;;;;5.47;3.83;;;;;;;-12.41;68.33;96307.66;5111401;28;20039;-59
2024/02/08 00:10:32;;;;;;;9.82;4.63;;;;;;;-12.43;68.90;96307.84;5111197;28;20122;-59
2024/02/08 00:12:57;;;;;;;5.40;3.67;;;;;;;-12.58;68.11;96312.09;5111282;28;20172;-56
2024/02/08 00:15:25;;;;;;;8.57;4.53;;;;;;;-12.63;69.43;96327.88;5109928;28;20036;-60
2024/02/08 00:17:51;;;;;;;8.68;5.18;;;;;;;-12.63;68.16;96330.44;5111534;28;20035;-59
2024/02/08 00:20:17;;;;;;;9.82;3.95;;;;;;;-12.63;69.52;96332.19;5113649;28;20040;-59
2024/02/08 00:22:43;;;;;;;9.77;4.63;;;;;;;-12.67;68.80;96339.41;5115052;28;20062;-57
2024/02/08 00:25:10;;;;;;;7.57;4.43;;;;;;;-12.78;68.70;96338.97;5114826;28;20035;-59
2024/02/08 00:27:36;;;;;;;6.70;4.18;;;;;;;-12.91;69.30;96344.56;5096668;28;20101;-59
2024/02/08 00:30:02;;;;;;;4.72;3.50;;;;;;;-13.00;68.99;96348.13;5113160;28;20060;-60
2024/02/08 00:32:30;;;;;;;5.60;3.67;;;;;;;-13.04;70.17;96350.22;5114842;28;20043;-60
2024/02/08 00:34:57;;;;;;;3.90;2.47;;;;;;;-13.21;68.40;96357.09;5114283;28;20050;-59
2024/02/08 00:37:22;;;;;;;7.57;3.53;;;;;;;-13.21;70.36;96362.19;5114454;28;20482;-59
2024/02/08 00:39:48;;;;;;;9.10;3.78;;;;;;;-13.23;69.16;96355.66;5114627;28;20128;-61
2024/02/08 00:42:14;;;;;;;7.45;3.97;;;;;;;-13.21;70.18;96362.19;5114131;28;20059;-60
2024/02/08 00:44:43;;;;;;;6.75;3.70;;;;;;;-13.29;68.54;96367.34;5112946;28;20042;-60
2024/02/08 00:47:09;;;;;;;6.93;3.53;;;;;;;-13.29;68.96;96377.56;5112390;28;20492;-61
2024/02/08 00:49:35;;;;;;;6.90;4.03;;;;;;;-13.36;68.59;96379.94;5112895;28;20043;-61
2024/02/08 00:52:01;;;;;;;7.15;3.65;;;;;;;-13.35;69.33;96389.19;5114364;28;20040;-58
2024/02/08 00:54:27;;;;;;;7.72;4.13;;;;;;;-13.40;70.18;96399.06;5112707;28;20043;-59
2024/02/08 00:56:53;;;;;;;11.00;4.15;;;;;;;-13.41;69.07;96409.41;5113019;28;20404;-59
2024/02/08 00:59:22;;;;;;;7.93;3.55;;;;;;;-13.44;69.52;96415.63;5113181;28;20081;-58
2024/02/08 01:01:48;;;;;;;11.07;5.03;;;;;;;-13.35;69.83;96424.03;5113903;28;20150;-58
2024/02/08 01:04:13;;;;;;;6.00;4.13;;;;;;;-13.35;68.60;96434.22;5113155;28;20036;-60
2024/02/08 01:06:40;;;;;;;8.90;4.53;;;;;;;-13.42;68.23;96443.50;5113707;28;20048;-59
2024/02/08 01:09:09;;;;;;;10.35;4.22;;;;;;;-13.34;68.82;96446.03;5114025;28;20043;-59
2024/02/08 01:11:35;;;;;;;8.25;4.43;;;;;;;-13.40;69.69;96449.22;5113651;28;20497;-59
2024/02/08 01:14:02;;;;;;;9.57;5.50;;;;;;;-13.32;70.16;96456.88;5113936;28;20044;-60
2024/02/08 01:16:30;;;;;;;9.77;3.88;;;;;;;-13.34;68.58;96467.22;5112626;28;20047;-59
2024/02/08 01:18:56;;;;;;;9.52;4.78;;;;;;;-13.30;70.09;96471.03;5113734;28;20508;-58
2024/02/08 01:21:22;;;;;;;8.07;5.05;;;;;;;-13.17;70.02;96482.50;5113385;28;20056;-61
2024/02/08 01:23:49;;;;;;;8.45;5.03;;;;;;;-13.09;69.20;96485.00;5113747;28;20039;-60
2024/02/08 01:26:15;;;;;;;10.25;5.53;;;;;;;-13.08;70.02;96487.41;5113441;28;20501;-60
2024/02/08 01:28:41;;;;;;;10.70;4.10;;;;;;;-13.16;68.58;96487.41;5113458;28;20035;-60
2024/02/08 01:31:07;;;;;;;8.05;4.78;;;;;;;-13.04;68.99;96500.63;5112284;28;20059;-60
2024/02/08 01:33:36;;;;;;;9.13;5.07;;;;;;;-12.98;69.98;96506.84;5113377;28;20047;-60
2024/02/08 01:36:05;;;;;;;10.02;4.32;;;;;;;-12.95;68.78;96514.19;5111928;28;20116;-60
2024/02/08 01:38:30;;;;;;;8.70;5.00;;;;;;;-12.82;68.74;96525.50;5113305;28;20039;-57
2024/02/08 01:40:56;;;;;;;7.65;4.95;;;;;;;-12.72;67.66;96532.97;5113292;28;20039;-59
2024/02/08 01:43:22;;;;;;;12.02;6.20;;;;;;;-12.62;68.26;96525.13;5111730;28;20043;-59
2024/02/08 01:45:49;;;;;;;9.93;4.70;;;;;;;-12.63;67.88;96532.00;5113413;28;20039;-60
2024/02/08 01:48:15;;;;;;;10.35;4.95;;;;;;;-12.55;67.29;96533.75;5112904;28;20040;-60
2024/02/08 01:50:48;;;;;;;13.38;5.50;;;;;;;-12.47;67.94;96538.03;5094815;28;20035;-61
2024/02/08 01:53:15;;;;;;;9.68;4.50;;;;;;;-12.56;67.13;96547.44;5091147;28;20086;-60
2024/02/08 01:55:49;;;;;;;12.07;5.85;;;;;;;-12.41;66.56;96547.59;5097711;28;20070;-59
2024/02/08 01:58:15;;;;;;;7.40;5.38;;;;;;;-12.50;67.64;96559.56;5108624;28;20046;-59
2024/02/08 02:00:48;;;;;;;8.65;5.15;;;;;;;-12.58;67.55;96567.25;5111927;28;20180;-60
2024/02/08 02:03:16;;;;;;;8.60;4.32;;;;;;;-12.59;67.28;96578.41;5111370;28;20051;-60
2024/02/08 02:05:46;;;;;;;10.30;5.20;;;;;;;-12.64;67.64;96576.34;5112966;28;20039;-58
2024/02/08 02:08:21;;;;;;;6.18;4.43;;;;;;;-12.55;67.25;96579.69;5111284;28;20509;-59
2024/02/08 02:10:51;;;;;;;7.65;4.28;;;;;;;-12.66;67.63;96583.34;5111399;28;20046;-58
2024/02/08 02:13:17;;;;;;;13.88;4.53;;;;;;;-12.61;67.71;96587.97;5112878;28;20378;-58
2024/02/08 02:15:43;;;;;;;9.65;5.47;;;;;;;-12.64;68.14;96586.53;5112783;28;20040;-59
2024/02/08 02:18:11;;;;;;;15.85;5.20;;;;;;;-12.55;68.38;96573.78;5112300;28;20078;-58
2024/02/08 02:20:38;;;;;;;5.82;3.67;;;;;;;-12.65;67.66;96576.50;5111310;28;20046;-60
2024/02/08 02:23:04;;;;;;;9.73;4.30;;;;;;;-12.65;67.21;96582.38;5111025;28;20417;-58
2024/02/08 02:25:34;;;;;;;8.98;4.47;;;;;;;-12.59;68.16;96580.94;5112401;28;20508;-61
2024/02/08 02:28:01;;;;;;;6.45;4.20;;;;;;;-12.60;68.00;96587.81;5094556;28;20048;-59
2024/02/08 02:30:27;;;;;;;9.30;4.43;;;;;;;-12.46;68.76;96590.69;5112395;28;20398;-58
2024/02/08 02:32:59;;;;;;;10.82;5.10;;;;;;;-12.34;67.12;96593.69;5112565;28;20077;-59
2024/02/08 02:35:26;;;;;;;7.57;4.07;;;;;;;-12.32;67.95;96600.25;5094768;28;20043;-61
2024/02/08 02:37:52;;;;;;;8.90;5.22;;;;;;;-12.32;67.35;96602.78;5110851;28;20489;-57
2024/02/08 02:40:24;;;;;;;12.32;4.90;;;;;;;-12.37;67.14;96602.47;5112478;28;20039;-60
2024/02/08 02:42:57;;;;;;;11.05;5.05;;;;;;;-12.46;66.27;96606.78;5111551;28;20051;-58
2024/02/08 02:45:23;;;;;;;11.98;4.32;;;;;;;-12.64;67.86;96606.97;5111359;28;20036;-58
2024/02/08 02:48:01;;;;;;;11.57;5.25;;;;;;;-12.62;68.24;96617.00;5093060;28;20043;-59
2024/02/08 02:50:27;;;;;;;11.73;4.43;;;;;;;-12.70;68.01;96625.47;5112374;28;20136;-56
2024/02/08 02:52:53;;;;;;;11.77;4.70;;;;;;;-12.81;67.89;96634.22;5112395;28;20504;-59
2024/02/08 02:55:20;;;;;;;13.38;5.13;;;;;;;-12.78;69.26;96638.19;5111986;28;20497;-61
2024/02/08 02:57:47;;;;;;;6.20;4.45;;;;;;;-12.90;68.91;96645.38;5094448;28;20055;-59
2024/02/08 03:00:55;;;;;;;5.43;3.72;;;;;;;-12.83;69.83;96651.41;5110779;28;20043;-58
2024/02/08 03:03:07;;;;;;;8.30;4.38;;;;;;;-12.84;69.05;96660.03;5106531;27;20052;-58
2024/02/08 03:05:34;;;;;;;5.95;3.05;;;;;;;-12.93;68.74;96658.44;5112434;28;20050;-60
2024/02/08 03:08:04;;;;;;;10.18;5.45;;;;;;;-12.99;70.18;96664.16;5112482;28;20043;-59
2024/02/08 03:10:32;;;;;;;8.15;4.03;;;;;;;-12.98;69.37;96662.41;5110647;28;20039;-59
2024/02/08 03:12:57;;;;;;;8.48;4.85;;;;;;;-12.93;69.69;96667.84;5112082;28;20044;-59
2024/02/08 03:15:23;;;;;;;14.27;6.53;;;;;;;-12.89;68.42;96671.66;5110668;28;20051;-59
2024/02/08 03:17:49;;;;;;;14.00;6.95;;;;;;;-12.87;68.68;96675.66;5093407;28;20101;-59
2024/02/08 03:20:35;;;;;;;10.98;6.32;;;;;;;-12.89;68.66;96679.31;5093393;28;20394;-59
2024/02/08 03:23:01;;;;;;;44.25;9.30;;;;;;;-12.94;69.16;96689.19;5110785;28;20134;-60
2024/02/08 03:25:30;;;;;;;13.07;7.20;;;;;;;-12.85;68.40;96691.59;5111469;28;20115;-61
2024/02/08 03:27:56;;;;;;;19.17;8.52;;;;;;;-12.79;69.02;96691.91;5112068;28;20408;-59
2024/02/08 03:30:22;;;;;;;12.02;5.60;;;;;;;-12.91;69.17;96696.50;5109923;28;20059;-59
2024/02/08 03:32:53;;;;;;;9.45;4.75;;;;;;;-12.89;69.70;96700.50;5111862;28;20047;-58
2024/02/08 03:35:20;;;;;;;;;;;;;;;-12.77;68.73;96707.88;5110653;28;20455;-59
2024/02/08 03:37:48;;;;;;;16.27;6.90;;;;;;;-12.74;68.01;96703.25;5111745;28;20014;-58
2024/02/08 03:40:20;;;;;;;19.52;9.27;;;;;;;-12.64;68.10;96705.66;5110373;28;20051;-60
2024/02/08 03:42:50;;;;;;;21.13;10.50;;;;;;;-12.59;67.74;96709.34;5111649;28;20568;-59
2024/02/08 03:45:23;;;;;;;20.48;8.48;;;;;;;-12.50;67.35;96719.53;5111402;28;20048;-59
2024/02/08 03:47:50;;;;;;;20.05;7.30;;;;;;;-12.39;67.34;96719.25;5110530;28;20040;-59
2024/02/08 03:50:16;;;;;;;14.45;7.13;;;;;;;-12.26;67.65;96723.88;5111369;28;20036;-57
2024/02/08 03:52:42;;;;;;;21.35;9.23;;;;;;;-12.29;67.53;96724.19;5110142;28;20036;-59
2024/02/08 03:55:08;;;;;;;17.75;7.97;;;;;;;-12.27;66.96;96724.84;5113620;28;20058;-61
2024/02/08 03:57:37;;;;;;;18.10;8.52;;;;;;;-12.22;67.05;96731.06;5097218;28;20093;-58
2024/02/08 04:00:04;;;;;;;14.07;6.38;;;;;;;-12.10;66.92;96735.84;5115287;28;20055;-60
2024/02/08 04:02:43;;;;;;;15.10;7.40;;;;;;;-12.00;66.25;96731.38;5093562;28;20048;-58
2024/02/08 04:05:19;;;;;;;17.10;8.35;;;;;;;-11.92;66.43;96729.59;5093647;28;20066;-59
2024/02/08 04:07:59;;;;;;;13.63;5.85;;;;;;;-12.00;66.58;96739.03;5076546;28;20444;-60
2024/02/08 04:53:30;;;;;;;11.48;4.95;;;;;;;-11.98;66.09;96755.00;5076502;28;20182;-60
2024/02/08 04:54:38;;;;;;;8.38;3.47;;;;;;;-11.97;66.12;96823.00;5114484;28;20036;-59
2024/02/08 04:57:07;;;;;;;8.23;4.70;;;;;;;-12.07;65.64;96822.38;5112806;28;20109;-59
2024/02/08 04:59:36;;;;;;;9.55;4.50;;;;;;;-12.17;65.52;96833.53;5114056;28;20116;-59
2024/02/08 05:02:02;;;;;;;7.43;3.63;;;;;;;-12.11;66.93;96838.97;5113288;28;20056;-59
2024/02/08 05:04:29;;;;;;;8.05;4.03;;;;;;;-12.01;66.92;96842.16;5114253;28;20075;-61
2024/02/08 05:06:57;;;;;;;7.97;3.83;;;;;;;-11.98;66.41;96844.41;5113759;28;20040;-56
2024/02/08 05:09:24;;;;;;;6.65;4.10;;;;;;;-12.13;65.57;96847.56;5095727;28;20091;-59
2024/02/08 05:11:50;;;;;;;11.30;4.95;;;;;;;-12.04;66.29;96838.16;5075001;28;20044;-56
2024/02/08 05:14:19;;;;;;;9.25;5.35;;;;;;;-11.99;65.26;96842.81;5110878;28;20080;-61
2024/02/08 05:16:45;;;;;;;9.10;4.63;;;;;;;-12.04;66.06;96842.47;5114052;28;20048;-59
2024/02/08 05:19:14;;;;;;;13.63;5.65;;;;;;;-12.12;64.99;96833.03;5112036;28;20043;-59
2024/02/08 05:21:41;;;;;;;14.80;7.13;;;;;;;-12.07;66.50;96843.59;5113972;28;20050;-60
2024/02/08 05:24:13;;;;;;;13.27;6.53;;;;;;;-12.07;66.64;96851.25;5111637;28;20043;-59
2024/02/08 05:26:40;;;;;;;13.90;5.72;;;;;;;-12.02;66.33;96851.59;5111771;28;20031;-58
2024/02/08 05:29:08;;;;;;;11.07;5.55;;;;;;;-12.05;65.63;96859.56;5111730;28;20428;-59
2024/02/08 05:31:39;;;;;;;20.55;9.38;;;;;;;-12.00;65.65;96864.19;5110515;28;20127;-59
2024/02/08 05:34:07;;;;;;;18.55;8.05;;;;;;;-11.91;66.54;96858.13;5111440;28;20039;-61
2024/02/08 05:36:39;;;;;;;12.73;6.28;;;;;;;-11.78;65.42;96858.44;5111736;28;20061;-59
2024/02/08 05:39:23;;;;;;;12.82;6.40;;;;;;;-11.70;66.32;96861.00;5112556;28;20044;-60
2024/02/08 05:41:53;;;;;;;9.13;5.65;;;;;;;-11.70;65.51;96883.22;5094009;28;20044;-57
2024/02/08 05:44:20;;;;;;;9.90;5.07;;;;;;;-11.79;65.01;96886.69;5083416;28;20520;-60
2024/02/08 05:46:47;;;;;;;11.85;5.32;;;;;;;-11.97;65.80;96892.78;5113934;28;20455;-60
2024/02/08 05:49:16;;;;;;;11.93;5.65;;;;;;;-12.05;65.17;96897.09;5113883;28;20545;-62
2024/02/08 05:51:47;;;;;;;9.15;5.05;;;;;;;-12.14;65.90;96902.16;5062022;28;20047;-60
2024/02/08 05:54:36;;;;;;;8.63;4.72;;;;;;;-12.19;65.67;96904.38;5112333;28;20035;-60
2024/02/08 05:57:05;;;;;;;7.78;4.82;;;;;;;-12.28;66.77;96901.97;5111225;28;20051;-62
2024/02/08 05:59:31;;;;;;;7.22;4.45;;;;;;;-12.47;65.64;96906.38;5094771;28;20036;-62
2024/02/08 06:02:01;;;;;;;7.30;3.75;;;;;;;-12.40;67.22;96907.34;5094869;28;20052;-60
2024/02/08 06:04:34;;;;;;;6.28;4.70;;;;;;;-12.31;67.03;96912.47;5110879;28;20031;-61
2024/02/08 06:07:06;;;;;;;10.90;5.30;;;;;;;-12.28;65.69;96915.53;5108882;27;20470;-61
2024/02/08 06:12:16;;;;;;;10.88;5.40;;;;;;;-12.32;66.29;96915.97;5092837;28;20035;-57
2024/02/08 06:14:43;;;;;;;8.82;4.57;;;;;;;-12.30;66.69;96924.28;5061270;28;20126;-58
2024/02/08 06:17:10;;;;;;;8.43;4.63;;;;;;;-12.19;66.86;96927.34;5093505;28;20067;-56
2024/02/08 06:19:50;;;;;;;10.20;5.45;;;;;;;-12.08;66.14;96931.38;5112257;28;20481;-57
2024/02/08 06:22:22;;;;;;;6.70;4.40;;;;;;;-12.14;65.47;96935.34;5110598;28;20488;-57
2024/02/08 06:24:49;;;;;;;17.63;8.02;;;;;;;-12.13;64.65;96938.72;5110587;28;20055;-58
2024/02/08 06:27:15;;;;;;;19.65;7.95;;;;;;;-12.12;65.56;96927.53;5109524;28;20054;-59
2024/02/08 06:29:49;;;;;;;18.02;7.05;;;;;;;-12.01;64.75;96937.47;5093856;28;20417;-60
2024/02/08 06:38:00;;;;;;;8.07;4.82;;;;;;;-12.10;63.56;96952.94;5060256;28;20055;-60
2024/02/08 06:40:50;;;;;;;10.02;5.43;;;;;;;-11.91;63.62;96947.53;5111665;28;20031;-59
2024/02/08 07:37:27;;;;;;;6.30;4.10;;;;;;;-11.59;61.59;96956.19;5115731;28;20226;-60
2024/02/08 07:40:18;;;;;;;5.22;3.50;;;;;;;-11.32;61.47;97001.97;5115614;28;20067;-61
2024/02/08 07:42:44;;;;;;;8.45;3.45;;;;;;;-11.68;60.54;97020.06;5115475;28;20164;-61
2024/02/08 07:45:12;;;;;;;5.97;3.83;;;;;;;-11.79;61.87;97017.00;5113823;27;20083;-62
2024/02/08 07:47:39;;;;;;;10.13;4.15;;;;;;;-11.58;62.39;97024.28;5115314;28;20479;-56
2024/02/08 07:50:07;;;;;;;10.05;4.57;;;;;;;-11.53;61.70;97027.16;5114172;28;20038;-57
2024/02/08 07:52:46;;;;;;;9.13;4.35;;;;;;;-11.55;61.53;97024.75;5113858;28;20043;-58
2024/02/08 07:55:20;;;;;;;5.97;3.60;;;;;;;-11.59;61.91;97033.69;5113800;28;20035;-57
2024/02/08 07:57:57;;;;;;;8.15;4.15;;;;;;;-11.50;61.25;97027.66;5115497;28;20048;-59
2024/02/08 08:03:09;;;;;;;8.23;4.57;;;;;;;-11.45;61.56;97037.41;5113634;28;20516;-55
2024/02/08 08:05:41;;;;;;;10.00;4.60;;;;;;;-11.44;61.20;97050.03;5113393;28;20039;-60
2024/02/08 08:08:32;;;;;;;9.95;4.60;;;;;;;-11.61;61.17;97053.50;5110463;28;20097;-59
2024/02/08 08:11:02;;;;;;;4.70;2.78;;;;;;;-11.61;61.85;97055.25;5097168;28;20111;-58
2024/02/08 08:18:58;;;;;;;9.30;3.72;;;;;;;-11.47;61.05;97073.38;5115020;28;20051;-59
2024/02/08 08:21:25;;;;;;;6.90;4.07;;;;;;;-11.29;61.49;97080.91;5114240;28;20039;-55
2024/02/08 08:24:02;;;;;;;8.07;4.53;;;;;;;-11.12;61.82;97076.63;5114601;28;20035;-59
2024/02/08 08:26:43;;;;;;;11.65;4.45;;;;;;;-11.06;60.92;97082.88;5095832;28;20057;-57
2024/02/08 08:29:18;;;;;;;8.57;3.92;;;;;;;-10.98;60.83;97068.31;5114173;28;20042;-58
2024/02/08 08:31:51;;;;;;;5.30;3.35;;;;;;;-10.99;61.17;97087.19;5113146;28;20565;-58
2024/02/08 08:40:20;;;;;;;6.70;3.65;;;;;;;-10.86;60.88;97094.41;5113946;28;20417;-59
2024/02/08 08:42:54;;;;;;;7.18;4.22;;;;;;;-10.68;60.71;97101.13;5113067;28;20047;-57
2024/02/08 08:45:21;;;;;;;6.35;3.97;;;;;;;-10.73;60.09;97093.94;5114677;28;20040;-58
2024/02/08 08:48:00;;;;;;;8.82;3.97;;;;;;;-10.57;60.80;97105.94;5094309;28;20043;-57
2024/02/08 08:50:31;;;;;;;9.35;4.55;;;;;;;-10.38;60.86;97105.63;5078872;28;20422;-56
2024/02/08 08:53:07;;;;;;;7.63;4.22;;;;;;;-10.31;60.94;97103.22;5114630;28;20051;-56
2024/02/08 08:55:48;;;;;;;8.20;4.65;;;;;;;-10.24;60.03;97111.81;5114279;28;20088;-56
2024/02/08 08:58:13;;;;;;;6.57;3.25;;;;;;;-10.36;59.25;97106.25;5112848;28;20113;-58
2024/02/08 09:00:46;;;;;;;8.65;4.05;;;;;;;-10.35;59.70;97105.31;5113615;28;20500;-60
2024/02/08 09:03:26;;;;;;;13.57;4.45;;;;;;;-10.15;60.02;97115.16;5078932;28;20134;-59
2024/02/08 09:05:56;;;;;;;6.90;4.70;;;;;;;-10.05;60.98;97113.25;5112713;28;20031;-59
2024/02/08 09:08:25;;;;;;;9.48;5.30;;;;;;;-9.97;59.81;97107.28;5114003;28;20043;-60
2024/02/08 09:10:51;;;;;;;5.47;3.88;;;;;;;-9.95;59.37;97106.16;5112312;28;20116;-60
2024/02/08 09:13:18;;;;;;;6.80;4.20;;;;;;;-10.05;58.21;97108.13;5112183;28;20036;-62
2024/02/08 09:16:29;;;;;;;6.55;3.90;;;;;;;-10.10;60.65;97103.47;5111920;28;20510;-62
2024/02/08 09:21:32;;;;;;;7.82;4.20;;;;;;;-10.14;59.16;97109.09;5095353;28;20080;-59
2024/02/08 09:23:58;;;;;;;10.05;4.30;;;;;;;-10.28;59.39;97115.69;5112663;28;20050;-61
2024/02/08 09:26:25;;;;;;;12.50;5.57;;;;;;;-10.23;59.50;97112.59;5113288;28;20052;-60
2024/02/08 09:28:52;;;;;;;6.63;4.13;;;;;;;-10.19;58.90;97121.59;5113322;28;20401;-61
2024/02/08 09:31:17;;;;;;;12.10;5.00;;;;;;;-10.28;59.04;97120.81;5112282;28;20056;-59
2024/02/08 09:33:45;;;;;;;10.07;4.20;;;;;;;-10.43;59.45;97123.22;5111535;28;20050;-61
2024/02/08 09:36:14;;;;;;;9.65;4.20;;;;;;;-10.35;58.73;97122.41;5111588;28;20489;-61
2024/02/08 09:38:44;;;;;;;8.25;4.32;;;;;;;-10.27;60.21;97111.38;5094624;28;20035;-60
2024/02/08 09:41:23;;;;;;;6.35;3.88;;;;;;;-10.04;59.57;97126.84;5111927;28;20048;-60
2024/02/08 09:43:56;;;;;;;8.40;4.28;;;;;;;-10.04;59.96;97130.22;5091435;28;20043;-61
2024/02/08 09:49:12;;;;;;;7.85;4.47;;;;;;;-9.94;59.50;97127.47;5112202;28;20089;-62
2024/02/08 09:51:40;;;;;;;11.10;4.63;;;;;;;-9.71;59.72;97138.63;5111880;28;20038;-61
2024/02/08 09:54:16;;;;;;;11.80;4.85;;;;;;;-9.51;58.83;97153.63;5113571;28;20137;-60
2024/02/08 09:56:54;;;;;;;8.45;4.10;;;;;;;-9.66;58.25;97144.06;5111595;28;20054;-61
2024/02/08 09:59:50;;;;;;;8.05;4.32;;;;;;;-9.66;58.75;97141.50;5096078;28;20425;-60
2024/02/08 10:02:23;;;;;;;6.95;3.58;;;;;;;-9.75;58.61;97146.81;5111377;28;20051;-59
2024/02/08 10:04:57;;;;;;;6.47;3.10;;;;;;;-9.91;57.21;97153.59;5112661;28;20524;-59
2024/02/08 10:07:34;;;;;;;8.95;4.50;;;;;;;-9.79;58.60;97166.03;5111374;28;20043;-60
2024/02/08 10:10:15;;;;;;;10.88;5.43;;;;;;;-9.88;58.12;97155.00;5111987;28;20067;-60
2024/02/08 10:15:43;;;;;;;10.02;3.97;;;;;;;-9.99;59.32;97175.88;5112686;28;20068;-61
2024/02/08 10:18:22;;;;;;;7.85;3.75;;;;;;;-10.25;58.82;97169.16;5111307;28;20043;-60
2024/02/08 10:20:56;;;;;;;7.00;4.05;;;;;;;-10.34;59.15;97177.81;5112539;28;20044;-60
2024/02/08 10:23:34;;;;;;;7.80;5.00;;;;;;;-10.30;59.02;97173.97;5110533;28;20043;-60
2024/02/08 10:28:53;;;;;;;12.75;4.65;;;;;;;-10.41;58.96;97177.66;5112673;28;20078;-60
2024/02/08 10:31:23;;;;;;;11.23;4.95;;;;;;;-10.23;59.77;97180.03;5110634;28;20048;-61
2024/02/08 10:33:57;;;;;;;8.40;4.10;;;;;;;-10.09;59.85;97183.69;5112142;28;20046;-62
2024/02/08 10:36:31;;;;;;;10.45;5.10;;;;;;;-10.07;58.46;97189.47;5111655;28;20088;-60
2024/02/08 10:39:07;;;;;;;13.77;5.40;;;;;;;-9.98;59.13;97182.59;5112379;28;20089;-60
2024/02/08 10:42:13;;;;;;;8.90;4.80;;;;;;;-9.87;59.15;97203.56;5093359;28;20047;-60
2024/02/08 10:44:29;;;;;;;7.72;3.97;;;;;;;-9.93;59.11;97198.28;5109880;28;20133;-61
2024/02/08 10:46:57;;;;;;;6.93;3.95;;;;;;;-9.90;58.39;97208.22;5110111;28;20035;-62
2024/02/08 10:49:23;;;;;;;7.65;4.22;;;;;;;-9.87;58.53;97210.44;5110988;28;20040;-60
2024/02/08 10:51:50;;;;;;;7.32;4.38;;;;;;;-9.60;58.79;97206.72;5074198;28;20048;-61
2024/02/08 10:54:22;;;;;;;10.00;6.45;;;;;;;-9.70;58.22;97206.91;5111825;27;20047;-62
2024/02/08 10:57:06;;;;;;;11.18;5.35;;;;;;;-9.49;58.71;97216.63;5110197;28;20396;-60
2024/02/08 10:59:52;;;;;;;5.65;3.42;;;;;;;-9.52;57.36;97214.41;5111947;28;20066;-62
2024/02/08 11:02:32;;;;;;;8.68;4.18;;;;;;;-9.38;56.14;97215.50;5111599;28;20566;-61
2024/02/08 11:05:20;;;;;;;10.17;3.83;;;;;;;-9.30;57.30;97212.09;5110398;28;20031;-61
2024/02/08 11:07:48;;;;;;;7.65;3.45;;;;;;;-9.50;56.23;97221.91;5111843;28;20047;-61
2024/02/08 11:10:20;;;;;;;9.40;4.22;;;;;;;-9.26;56.97;97228.78;5111641;28;20043;-60
2024/02/08 11:12:48;;;;;;;7.10;3.78;;;;;;;-9.30;57.12;97228.28;5110159;28;20050;-62
2024/02/08 11:15:17;;;;;;;5.57;4.30;;;;;;;-9.30;57.24;97237.75;5110297;28;20065;-61
2024/02/08 11:17:52;;;;;;;9.00;3.87;;;;;;;-9.08;57.88;97231.91;5109981;28;20051;-60
2024/02/08 11:20:46;;;;;;;6.20;3.83;;;;;;;-8.77;56.86;97234.50;5111535;28;20119;-60
2024/02/08 11:23:22;;;;;;;9.43;4.55;;;;;;;-8.75;57.53;97244.63;5110843;28;20416;-60
2024/02/08 11:25:52;;;;;;;7.40;4.38;;;;;;;-8.88;56.04;97244.34;5111040;28;20105;-61
2024/02/08 11:28:27;;;;;;;9.00;4.30;;;;;;;-8.78;56.38;97252.66;5110765;28;20131;-60
2024/02/08 11:30:53;;;;;;;6.93;4.32;;;;;;;-8.73;56.04;97253.75;5109807;28;20062;-60
2024/02/08 11:33:32;;;;;;;6.80;4.15;;;;;;;-8.89;57.05;97258.16;5111197;28;20039;-59
2024/02/08 11:36:11;;;;;;;8.88;4.35;;;;;;;-8.92;57.32;97252.38;5111086;28;20067;-61
2024/02/08 11:38:57;;;;;;;6.67;4.30;;;;;;;-8.65;58.14;97262.38;5111338;28;20054;-60
2024/02/08 11:41:27;;;;;;;9.18;3.92;;;;;;;-8.66;57.23;97250.53;5111130;28;20450;-60
2024/02/08 11:44:03;;;;;;;8.43;4.00;;;;;;;-8.73;56.44;97256.31;5110860;28;20525;-62
2024/02/08 11:46:45;;;;;;;8.27;4.57;;;;;;;-9.09;56.95;97255.97;5109424;28;20044;-61
2024/02/08 11:49:14;;;;;;;8.70;4.28;;;;;;;-9.12;57.88;97255.50;5095246;28;20524;-61
2024/02/08 11:51:48;;;;;;;9.45;5.05;;;;;;;-9.21;57.61;97264.97;5109523;28;20130;-59
2024/02/08 11:54:27;;;;;;;12.45;4.53;;;;;;;-9.24;58.55;97258.41;5108182;28;20093;-58
2024/02/08 11:56:56;;;;;;;11.02;4.22;;;;;;;-9.30;57.72;97258.28;5092469;28;20060;-58
2024/02/08 11:59:24;;;;;;;5.78;2.95;;;;;;;-9.78;57.89;97267.66;5109706;28;20031;-59
2024/02/08 12:01:52;;;;;;;9.85;4.68;;;;;;;-9.68;58.46;97276.75;5108684;28;20084;-59
2024/02/08 12:04:18;;;;;;;8.20;3.92;;;;;;;-9.76;58.68;97273.38;5108726;28;20035;-59
2024/02/08 12:06:45;;;;;;;5.85;3.42;;;;;;;-9.72;58.77;97278.06;5108370;28;20424;-60
2024/02/08 12:09:22;;;;;;;6.10;4.10;;;;;;;-9.93;58.33;97270.84;5110305;28;20370;-57
2024/02/08 12:11:51;;;;;;;9.57;4.78;;;;;;;-9.97;59.12;97281.56;5111034;28;20101;-58
2024/02/08 12:14:17;;;;;;;5.53;4.80;;;;;;;-10.14;59.06;97268.75;5111042;28;20066;-60
2024/02/08 12:16:46;;;;;;;8.93;4.50;;;;;;;-10.03;59.13;97283.00;5114235;28;20081;-60
2024/02/08 12:19:19;;;;;;;9.07;5.25;;;;;;;-9.97;58.75;97279.00;5113417;28;20490;-61
2024/02/08 12:21:59;;;;;;;7.28;4.40;;;;;;;-10.00;58.46;97280.13;5114333;28;20040;-60
2024/02/08 12:24:25;;;;;;;9.30;5.03;;;;;;;-10.06;58.61;97281.56;5113434;28;20031;-59
2024/02/08 12:26:54;;;;;;;7.72;4.60;;;;;;;-10.09;59.15;97291.31;5114615;28;20089;-61
2024/02/08 12:29:24;;;;;;;7.57;4.03;;;;;;;-10.22;58.96;97285.88;5113537;28;20431;-59
2024/02/08 12:31:54;;;;;;;8.70;4.97;;;;;;;-10.07;60.00;97297.09;5113022;28;20048;-60
2024/02/08 12:34:31;;;;;;;9.07;4.55;;;;;;;-9.88;59.64;97309.63;5113582;28;20044;-60
2024/02/08 12:37:04;;;;;;;8.93;4.60;;;;;;;-9.73;60.37;97317.47;5114534;28;20040;-60
2024/02/08 12:39:38;;;;;;;5.05;2.95;;;;;;;-9.86;59.62;97305.13;5114312;28;20425;-58
2024/02/08 12:42:05;;;;;;;8.43;3.90;;;;;;;-9.96;59.92;97326.75;5112961;28;20067;-60
2024/02/08 12:44:34;;;;;;;10.02;4.72;;;;;;;-10.04;61.17;97317.28;5113025;28;20035;-61
2024/02/08 12:47:01;;;;;;;7.43;3.87;;;;;;;-9.97;60.52;97322.56;5114231;28;20036;-59
2024/02/08 12:49:27;;;;;;;8.93;4.30;;;;;;;-9.88;60.74;97317.31;5114455;28;20278;-59
2024/02/08 12:52:00;;;;;;;6.30;3.72;;;;;;;-9.97;61.06;97320.00;5112487;28;20098;-58
2024/02/08 12:54:30;;;;;;;5.47;3.42;;;;;;;-10.00;61.33;97321.13;5112896;28;20500;-59
2024/02/08 12:57:07;;;;;;;5.15;3.28;;;;;;;-10.09;61.62;97328.03;5112180;28;20047;-59
2024/02/08 12:59:35;;;;;;;6.50;2.97;;;;;;;-10.09;61.67;97324.63;5112822;28;20043;-59
2024/02/08 13:02:08;;;;;;;8.63;3.30;;;;;;;-10.00;61.48;97330.56;5113975;28;20463;-60
2024/02/08 13:04:44;;;;;;;5.40;3.47;;;;;;;-10.07;60.47;97328.66;5112775;28;20057;-57
2024/02/08 13:07:18;;;;;;;8.27;3.75;;;;;;;-10.14;61.44;97326.88;5095576;28;20039;-57
2024/02/08 13:09:45;;;;;;;5.70;3.80;;;;;;;-10.24;61.43;97329.56;5113937;28;20035;-61
2024/02/08 13:12:22;;;;;;;6.30;3.92;;;;;;;-10.26;62.28;97331.50;5113705;28;20071;-63
2024/02/08 13:14:48;;;;;;;6.60;3.67;;;;;;;-10.32;62.25;97332.16;5112244;28;20039;-61
2024/02/08 13:17:18;;;;;;;6.35;3.40;;;;;;;-10.28;62.41;97333.44;5095415;28;20078;-62
2024/02/08 13:19:49;;;;;;;7.95;4.10;;;;;;;-10.29;62.23;97329.28;5113659;28;20035;-61
2024/02/08 13:22:20;;;;;;;6.28;3.05;;;;;;;-10.34;61.69;97332.31;5111887;28;20043;-60
2024/02/08 13:24:53;;;;;;;5.70;3.38;;;;;;;-10.59;62.29;97343.41;5112339;28;20056;-60
2024/02/08 13:27:24;;;;;;;5.90;2.88;;;;;;;-10.57;62.98;97341.50;5111967;28;20153;-60
2024/02/08 13:29:53;;;;;;;6.43;3.22;;;;;;;-10.58;61.71;97340.72;5113516;28;20047;-61
2024/02/08 13:32:24;;;;;;;6.05;2.95;;;;;;;-10.62;62.72;97341.16;5095063;28;20054;-61
2024/02/08 13:34:55;;;;;;;6.35;3.88;;;;;;;-10.63;63.26;97347.25;5111735;28;20186;-61
2024/02/08 13:37:22;;;;;;;5.45;3.30;;;;;;;-10.72;63.50;97343.84;5113394;28;20059;-62
2024/02/08 13:40:03;;;;;;;8.60;3.90;;;;;;;-10.76;63.59;97352.81;5112943;28;20036;-61
2024/02/08 13:42:30;;;;;;;6.40;3.55;;;;;;;-10.68;63.44;97362.25;5113127;28;20400;-59
2024/02/08 13:45:01;;;;;;;7.30;3.30;;;;;;;-10.73;64.11;97360.16;5111737;28;20040;-61
2024/02/08 13:47:30;;;;;;;8.20;3.75;;;;;;;-10.75;63.14;97355.19;5111670;28;20120;-60
2024/02/08 13:49:57;;;;;;;5.57;3.58;;;;;;;-10.78;63.94;97368.28;5112862;28;20101;-61